Centennial, WY (82055)

2:12 PM MDT on August 03, 2015 (GMT -0600)
Aspen Country | | Change Station
CLOSE
Current Station
Personal Weather Station
Location: Centennial, WY
Elevation: 8050 ft
Nearby Weather Stations

Elev 8050 ft 41.29 °N, 106.15 °W | Updated 11 minutes ago

Overcast
Overcast
61.3 °F
Feels Like 61.3 °F
N
10.0
Wind Variable Wind from WNW
Gusts 12.0 mph

Today
High -- | Low -- °F
--% Chance of Precip.
Yesterday
High -- | Low -- °F
Precip. -- in
6:01 AM 8:19 PM
Waning Gibbous, 84% visible
Pressure 29.81 in
Visibility 10.0 miles
Clouds Few 9500 ft
Dew Point 48 °F
Humidity 62%
Rainfall 0.04 in
Snow Depth Not available.
UV 11 out of 12
Pollen 7.30 out of 12
Air Quality Not available.
Flu Activity Not available.
METAR KLAR 031953Z AUTO 15019G26KT 10SM FEW095 27/02 A3018 RMK AO2 PK WND 15028/1914 LTG DSNT N AND NW SLP093 T02670017

More Conditions Fewer Conditions

Pressure 29.81 in
Visibility 10.0 miles
Clouds Few 9500 ft
Dew Point 48 °F
Humidity 62%
Rainfall 0.04 in
Snow Depth Not available.
UV 11 out of 12
Pollen 7.30 out of 12
Air Quality Not available.
Flu Activity Not available.
METAR KLAR 031953Z AUTO 15019G26KT 10SM FEW095 27/02 A3018 RMK AO2 PK WND 15028/1914 LTG DSNT N AND NW SLP093 T02670017

More Conditions Fewer Conditions

10-Day Weather Forecast

×

Almanac

Astronomy

Aug. 03, 2015 Rise Set
Actual Time
Civil Twilight
Nautical Twilight
Astronomical Twilight
Moon
Length of Visible Light
Length of Day
Tomorrow will be .
, % of the Moon is Illuminated

Today's Extremes

State Highs State Lows

Community

WunderPhotos

Upload Photos

1,843,720 photos uploaded!

WunderBlogs® & News

Nearby

Air Quality

  Air Quality AQ Index Pollutant
Not available.

Snow Depth

Station Depth Elevation

Earthquake Activity

City Distance Mag. Time & Date
Minimum magnitude displayed is 2.5.

Coastal Water Temperatures

Place Temperature

Stations

Nearby Weather Stations

Station Location Temp. Windchill Dew Point Humidity Wind Precip. Elev Updated Type